Time;durP1;ratioP1;P1;durP2;ratioP2;P2;SDS_P1;SDS_P2;PMS_P1;PMS_P2;Temp;Humidity;BMP_temperature;BMP_pressure;BME280_temperature;BME280_humidity;BME280_pressure;Samples;Min_cycle;Max_cycle;Signal;HPM_P1;HPM_P2
2023/07/30 00:02:57;;;;;;;15.45;6.03;;;;;;;22.28;73.72;99650.84;1746855;82;21318;-81
2023/07/30 00:06:07;;;;;;;9.63;5.85;;;;;;;22.35;73.43;99650.06;1728122;82;21288;-83
2023/07/30 00:09:13;;;;;;;11.65;6.35;;;;;;;22.42;72.99;99648.70;1746960;82;21609;-81
2023/07/30 00:12:19;;;;;;;9.78;5.67;;;;;;;21.72;75.75;99643.45;1747432;82;21303;-82
2023/07/30 00:15:26;;;;;;;10.65;6.50;;;;;;;21.63;76.48;99639.75;1748408;82;21288;-83
2023/07/30 00:18:32;;;;;;;8.23;6.05;;;;;;;21.54;76.80;99639.95;1747814;82;21334;-82
2023/07/30 00:21:43;;;;;;;8.63;5.58;;;;;;;21.58;76.88;99636.09;1747968;82;21327;-83
2023/07/30 00:24:49;;;;;;;8.00;5.97;;;;;;;21.42;77.26;99639.30;1733755;82;21319;-82
2023/07/30 00:27:55;;;;;;;6.45;5.62;;;;;;;21.36;77.56;99644.50;1726801;83;21288;-83
2023/07/30 00:31:02;;;;;;;8.05;5.83;;;;;;;21.41;77.42;99641.80;1726758;83;21284;-82
2023/07/30 00:34:09;;;;;;;8.15;6.03;;;;;;;21.42;77.06;99640.13;1725836;83;21311;-83
2023/07/30 00:37:15;;;;;;;6.30;5.70;;;;;;;21.30;77.44;99638.58;1726919;83;21312;-83
2023/07/30 00:40:22;;;;;;;7.37;5.85;;;;;;;21.31;77.40;99641.67;1726808;83;21885;-81
2023/07/30 00:43:28;;;;;;;7.20;5.65;;;;;;;21.40;76.96;99640.94;1725640;83;21304;-82
2023/07/30 00:46:36;;;;;;;6.45;5.83;;;;;;;21.38;76.75;99633.97;1726758;83;22239;-83
2023/07/30 00:49:42;;;;;;;7.58;6.10;;;;;;;21.40;76.54;99635.37;1708686;83;21881;-82
2023/07/30 00:52:48;;;;;;;6.97;6.28;;;;;;;21.31;76.88;99633.33;1725953;83;21341;-82
2023/07/30 00:55:53;;;;;;;10.10;5.95;;;;;;;21.29;76.96;99629.95;1710673;83;21292;-82
2023/07/30 00:59:00;;;;;;;8.53;6.10;;;;;;;21.16;77.44;99632.05;1726033;83;21340;-81
2023/07/30 01:02:08;;;;;;;10.05;6.08;;;;;;;21.10;77.43;99633.66;1726452;83;21356;-81
2023/07/30 01:05:14;;;;;;;12.47;5.90;;;;;;;21.21;76.86;99635.98;1726723;83;21281;-82
2023/07/30 01:08:19;;;;;;;8.63;5.97;;;;;;;21.27;76.72;99633.02;1726467;83;21312;-83
2023/07/30 01:11:26;;;;;;;8.05;5.83;;;;;;;21.30;76.60;99626.06;1726962;83;21281;-83
2023/07/30 01:14:33;;;;;;;7.90;5.70;;;;;;;21.27;76.56;99638.57;1726888;83;21320;-83
2023/07/30 01:17:39;;;;;;;11.08;5.97;;;;;;;21.10;77.05;99638.66;1709768;83;21331;-81
2023/07/30 01:20:46;;;;;;;9.03;5.78;;;;;;;21.28;76.54;99631.90;1727031;83;21850;-82
2023/07/30 01:23:52;;;;;;;7.35;6.50;;;;;;;21.14;76.74;99633.42;1726395;83;21297;-83
2023/07/30 01:27:09;;;;;;;7.92;5.75;;;;;;;21.28;76.15;99633.84;1724858;83;21320;-82
2023/07/30 01:30:29;;;;;;;10.80;5.75;;;;;;;21.13;76.46;99638.70;1726959;83;21328;-82
2023/07/30 01:33:39;;;;;;;7.37;5.70;;;;;;;21.25;75.71;99631.58;1725908;83;21303;-83
2023/07/30 01:36:48;;;;;;;8.28;5.83;;;;;;;21.18;75.78;99641.53;1726944;83;21304;-82
2023/07/30 01:39:56;;;;;;;8.40;6.40;;;;;;;20.93;76.77;99643.47;1726926;83;21265;-80
2023/07/30 01:42:55;;;;;;;10.05;6.65;;;;;;;20.98;76.70;99641.30;1726329;83;21917;-83
2023/07/30 01:46:00;;;;;;;10.15;6.97;;;;;;;20.97;76.91;99642.40;1726667;83;21285;-80
2023/07/30 01:49:07;;;;;;;8.70;6.62;;;;;;;20.98;77.20;99635.18;1726014;83;21308;-82
2023/07/30 01:52:14;;;;;;;8.08;6.30;;;;;;;21.15;76.51;99645.66;1725432;83;21313;-84
2023/07/30 01:55:20;;;;;;;10.78;7.10;;;;;;;21.03;76.47;99633.01;1725947;83;21344;-82
2023/07/30 01:58:27;;;;;;;7.55;6.53;;;;;;;20.90;77.18;99638.45;1726378;83;21320;-83
2023/07/30 02:01:32;;;;;;;10.28;6.85;;;;;;;21.07;76.42;99642.51;1726865;83;21276;-84
2023/07/30 02:04:38;;;;;;;13.38;7.37;;;;;;;21.22;75.87;99644.61;1725515;83;21327;-83
2023/07/30 02:07:44;;;;;;;10.08;6.60;;;;;;;21.23;75.58;99645.76;1726767;83;21849;-84
2023/07/30 02:10:50;;;;;;;9.78;7.15;;;;;;;21.10;76.36;99649.78;1725809;83;21325;-83
2023/07/30 02:13:55;;;;;;;8.15;6.85;;;;;;;21.18;76.13;99656.28;1725890;83;21360;-84
2023/07/30 02:17:01;;;;;;;9.30;6.72;;;;;;;20.89;77.25;99659.02;1726861;83;21309;-84
2023/07/30 02:20:09;;;;;;;9.48;6.90;;;;;;;20.89;77.17;99661.79;1726886;83;21285;-82
2023/07/30 02:23:15;;;;;;;11.78;6.47;;;;;;;20.87;77.10;99655.63;1726542;83;21309;-81
2023/07/30 02:26:20;;;;;;;10.15;6.78;;;;;;;21.07;76.50;99655.86;1727486;82;21356;-81
2023/07/30 02:29:25;;;;;;;12.68;7.05;;;;;;;21.01;76.54;99656.91;1747218;82;21888;-81
2023/07/30 02:32:31;;;;;;;8.80;7.03;;;;;;;21.12;76.69;99659.24;1748294;82;21904;-83
2023/07/30 02:35:36;;;;;;;9.83;7.45;;;;;;;21.17;76.70;99656.00;1747719;82;21280;-81
2023/07/30 02:38:42;;;;;;;9.48;6.05;;;;;;;21.21;77.40;99659.62;1746455;82;21315;-83
2023/07/30 02:41:49;;;;;;;11.53;6.40;;;;;;;21.51;77.06;99655.80;1747111;82;21323;-81
2023/07/30 02:44:54;;;;;;;7.53;6.35;;;;;;;21.98;75.77;99666.77;1745789;82;21303;-81
2023/07/30 02:48:00;;;;;;;16.12;6.85;;;;;;;22.30;74.68;99663.94;1746024;82;22322;-83
2023/07/30 02:51:07;;;;;;;12.00;6.70;;;;;;;22.56;74.21;99655.19;1722134;82;21307;-81
2023/07/30 02:54:14;;;;;;;9.98;6.08;;;;;;;23.08;72.22;99659.33;1746667;82;21326;-82
2023/07/30 02:57:22;;;;;;;8.75;7.03;;;;;;;22.91;72.59;99658.70;1747812;82;21279;-84
2023/07/30 03:00:27;;;;;;;18.02;6.08;;;;;;;22.83;72.76;99666.19;1747725;82;21303;-83
2023/07/30 03:03:33;;;;;;;6.37;5.37;;;;;;;23.25;71.32;99659.66;1747028;82;21871;-82
2023/07/30 03:06:38;;;;;;;10.50;5.60;;;;;;;23.47;69.96;99661.07;1747232;82;21291;-82
2023/07/30 03:09:44;;;;;;;10.50;6.60;;;;;;;23.38;69.96;99667.48;1745996;82;21367;-82
2023/07/30 03:12:51;;;;;;;17.23;5.90;;;;;;;23.68;69.00;99652.77;1745921;82;21749;-84
2023/07/30 03:15:56;;;;;;;8.40;5.37;;;;;;;23.70;68.70;99650.52;1746112;82;21864;-82
2023/07/30 03:19:02;;;;;;;13.95;5.80;;;;;;;23.98;67.74;99660.30;1746442;82;21640;-83
2023/07/30 03:22:07;;;;;;;8.25;5.65;;;;;;;24.16;67.35;99669.50;1746994;82;21304;-83
2023/07/30 03:25:16;;;;;;;6.80;5.20;;;;;;;24.33;66.93;99665.58;1746013;82;21657;-81
2023/07/30 03:28:22;;;;;;;9.18;5.75;;;;;;;24.73;65.59;99666.86;1745711;82;21319;-81
2023/07/30 03:31:28;;;;;;;12.68;6.40;;;;;;;24.88;64.96;99669.33;1747190;82;21275;-82
2023/07/30 03:34:35;;;;;;;7.12;5.83;;;;;;;25.26;64.01;99671.95;1745822;82;21322;-83
2023/07/30 03:37:40;;;;;;;8.33;5.80;;;;;;;25.59;62.79;99673.14;1747237;82;21844;-81
2023/07/30 03:40:47;;;;;;;7.35;5.85;;;;;;;25.66;62.67;99678.43;1726778;82;21895;-82
2023/07/30 03:43:57;;;;;;;8.58;5.80;;;;;;;25.79;62.36;99673.61;1725877;82;21327;-81
2023/07/30 03:47:03;;;;;;;10.95;5.78;;;;;;;26.29;60.86;99676.23;1745702;82;21340;-82
2023/07/30 03:50:09;;;;;;;8.83;6.15;;;;;;;26.25;60.62;99678.24;1745929;82;21872;-82
2023/07/30 03:53:14;;;;;;;8.88;6.92;;;;;;;26.15;60.94;99679.71;1746719;82;21363;-82
2023/07/30 03:56:19;;;;;;;11.30;6.62;;;;;;;26.22;60.91;99678.82;1745888;82;21347;-83
2023/07/30 03:59:28;;;;;;;10.78;6.95;;;;;;;26.33;60.94;99686.55;1745886;82;21311;-81
2023/07/30 04:02:26;;;;;;;8.95;7.00;;;;;;;26.63;59.84;99686.84;1745753;82;21291;-82
2023/07/30 04:05:33;;;;;;;9.83;6.53;;;;;;;26.96;58.93;99691.20;1746351;82;21303;-82
2023/07/30 04:08:39;;;;;;;10.32;6.90;;;;;;;26.91;58.78;99690.73;1746159;82;21347;-84
2023/07/30 04:11:43;;;;;;;7.42;6.12;;;;;;;26.99;59.10;99702.67;1747169;82;21332;-82
2023/07/30 04:14:49;;;;;;;10.93;6.67;;;;;;;27.19;58.88;99703.00;1747109;82;21304;-82
2023/07/30 04:17:54;;;;;;;12.28;6.12;;;;;;;27.12;58.33;99693.30;1747220;82;21315;-84
2023/07/30 04:21:04;;;;;;;17.15;7.00;;;;;;;26.96;58.13;99706.09;1747183;82;21303;-82
2023/07/30 04:24:08;;;;;;;10.75;6.87;;;;;;;27.12;57.23;99709.56;1747235;82;21303;-84
2023/07/30 04:27:14;;;;;;;8.73;6.80;;;;;;;27.11;57.98;99716.89;1735628;82;21307;-82
2023/07/30 04:30:21;;;;;;;10.32;7.45;;;;;;;27.49;57.53;99720.58;1735776;82;21201;-83
2023/07/30 04:33:27;;;;;;;13.10;5.67;;;;;;;27.60;56.85;99720.69;1733811;82;21368;-83
2023/07/30 04:36:32;;;;;;;9.88;6.35;;;;;;;27.62;55.82;99719.83;1732748;82;21292;-81
2023/07/30 04:39:31;;;;;;;10.78;6.47;;;;;;;27.83;54.55;99722.35;1733677;82;21362;-83
2023/07/30 04:42:37;;;;;;;14.40;6.55;;;;;;;27.93;54.10;99723.59;1734451;82;21355;-84
2023/07/30 04:45:43;;;;;;;7.95;5.95;;;;;;;28.19;53.53;99719.80;1734404;82;21372;-84
2023/07/30 04:48:49;;;;;;;12.63;5.55;;;;;;;28.33;54.08;99721.25;1734404;82;21304;-82
2023/07/30 04:51:55;;;;;;;6.72;5.37;;;;;;;28.49;53.06;99724.06;1734868;82;21300;-82
2023/07/30 04:55:05;;;;;;;9.95;5.78;;;;;;;28.51;52.45;99728.80;1734933;82;21173;-83
2023/07/30 04:58:12;;;;;;;11.08;6.20;;;;;;;28.56;52.12;99726.45;1734509;82;21293;-83
2023/07/30 05:01:18;;;;;;;8.45;6.15;;;;;;;28.47;51.94;99727.20;1735001;82;21284;-82
2023/07/30 05:04:24;;;;;;;11.50;6.90;;;;;;;28.43;52.11;99740.78;1733826;82;21344;-83
2023/07/30 05:07:33;;;;;;;14.83;7.92;;;;;;;28.39;52.23;99735.50;1733741;82;21743;-83
2023/07/30 05:10:38;;;;;;;11.40;9.25;;;;;;;28.39;51.85;99737.74;1735099;82;21174;-82
2023/07/30 05:13:45;;;;;;;15.43;10.32;;;;;;;28.44;51.33;99736.24;1733924;82;21877;-81
2023/07/30 05:16:51;;;;;;;27.40;12.37;;;;;;;28.66;50.97;99739.78;1733885;82;21292;-84
2023/07/30 05:19:56;;;;;;;30.50;13.62;;;;;;;28.73;50.91;99740.20;1734884;82;21916;-84
2023/07/30 05:23:06;;;;;;;21.55;11.70;;;;;;;29.17;50.04;99740.22;1734868;82;21211;-83
2023/07/30 05:26:11;;;;;;;;;;;;;;;29.22;49.91;99742.09;1723159;82;21283;-81
2023/07/30 05:29:18;;;;;;;13.68;9.35;;;;;;;29.36;49.72;99742.05;1692119;83;20257;-83
2023/07/30 05:32:24;;;;;;;14.40;7.65;;;;;;;29.57;49.22;99739.08;1693147;85;21319;-82
2023/07/30 05:35:30;;;;;;;15.15;7.45;;;;;;;29.46;49.05;99739.86;1693226;85;21177;-84
2023/07/30 05:38:37;;;;;;;15.25;6.97;;;;;;;29.71;48.74;99738.47;1692693;85;21276;-83
2023/07/30 05:41:43;;;;;;;14.40;6.87;;;;;;;29.56;48.67;99743.05;1691737;85;21876;-83
2023/07/30 05:44:49;;;;;;;9.75;7.12;;;;;;;29.47;49.06;99732.24;1692868;85;21295;-83
2023/07/30 05:47:55;;;;;;;11.60;6.75;;;;;;;29.54;49.28;99732.63;1691971;85;21386;-82
2023/07/30 05:51:02;;;;;;;13.08;7.45;;;;;;;29.46;49.64;99733.40;1693026;85;21876;-81
2023/07/30 05:54:07;;;;;;;13.58;7.70;;;;;;;29.57;49.36;99723.59;1692510;85;21351;-82
2023/07/30 05:57:15;;;;;;;8.90;7.03;;;;;;;29.47;49.93;99724.63;1691761;85;21193;-83
2023/07/30 06:00:20;;;;;;;9.35;7.22;;;;;;;29.77;49.07;99729.31;1693181;85;21643;-82
2023/07/30 06:03:26;;;;;;;10.38;7.72;;;;;;;29.86;48.80;99733.63;1692986;85;21342;-82
2023/07/30 06:06:32;;;;;;;11.45;7.40;;;;;;;29.85;49.48;99729.15;1693036;85;21320;-82
2023/07/30 06:09:38;;;;;;;12.47;9.18;;;;;;;29.96;48.96;99729.14;1692145;85;21331;-82
2023/07/30 06:12:45;;;;;;;10.72;9.20;;;;;;;30.22;47.87;99728.80;1692283;84;21729;-82
2023/07/30 06:15:51;;;;;;;14.15;9.90;;;;;;;30.28;47.74;99728.09;1693083;85;21920;-83
2023/07/30 06:18:57;;;;;;;16.80;9.70;;;;;;;30.21;47.84;99731.95;1693383;85;21335;-82
2023/07/30 06:22:03;;;;;;;11.60;8.68;;;;;;;30.18;48.46;99729.77;1693293;85;21296;-84
2023/07/30 06:25:08;;;;;;;14.93;8.50;;;;;;;30.67;47.36;99727.31;1693331;85;21276;-84
2023/07/30 06:28:17;;;;;;;9.85;6.92;;;;;;;30.78;46.52;99724.52;1691875;85;21311;-84
2023/07/30 06:31:23;;;;;;;11.18;6.00;;;;;;;30.99;45.64;99726.75;1692002;85;21406;-83
2023/07/30 06:34:30;;;;;;;8.40;6.00;;;;;;;31.03;44.99;99727.77;1684560;85;21319;-83
2023/07/30 06:37:36;;;;;;;9.20;6.42;;;;;;;31.25;44.00;99733.91;1685082;85;21312;-84
2023/07/30 06:40:34;;;;;;;;;;;;;;;31.42;43.66;99734.55;1686720;84;21738;-84
2023/07/30 06:43:39;;;;;;;10.43;7.15;;;;;;;31.58;43.17;99730.11;1685123;85;20281;-84
2023/07/30 06:46:44;;;;;;;8.48;6.28;;;;;;;31.60;43.43;99727.77;1685515;85;21280;-84
2023/07/30 06:49:50;;;;;;;13.83;6.40;;;;;;;31.66;43.64;99735.50;1652509;85;21323;-84
2023/07/30 06:52:55;;;;;;;7.37;5.25;;;;;;;31.76;43.29;99724.72;1685370;85;21453;-81
2023/07/30 06:56:01;;;;;;;7.67;5.45;;;;;;;31.97;42.06;99726.33;1685572;85;21967;-84
2023/07/30 06:59:09;;;;;;;9.38;5.47;;;;;;;31.87;43.45;99724.42;1684305;85;21370;-84
2023/07/30 07:02:16;;;;;;;7.08;4.05;;;;;;;32.06;41.77;99727.73;1684150;85;21323;-84
2023/07/30 07:05:23;;;;;;;4.97;3.60;;;;;;;32.04;40.54;99722.98;1684221;85;21328;-84
2023/07/30 07:08:31;;;;;;;5.67;3.08;;;;;;;32.02;39.20;99728.16;1684788;85;21351;-84
2023/07/30 07:11:37;;;;;;;7.17;3.70;;;;;;;31.93;39.07;99733.80;1722652;82;21303;-83
2023/07/30 07:14:43;;;;;;;5.62;3.10;;;;;;;31.71;39.44;99720.65;1742135;82;21303;-84
2023/07/30 07:17:50;;;;;;;9.40;3.60;;;;;;;32.01;38.56;99720.25;1743124;82;21291;-82
2023/07/30 07:20:56;;;;;;;4.97;3.87;;;;;;;31.88;38.86;99719.01;1743496;82;21275;-84
2023/07/30 07:24:03;;;;;;;9.83;3.30;;;;;;;31.88;38.52;99720.42;1742655;82;21312;-82
2023/07/30 07:27:08;;;;;;;8.75;4.87;;;;;;;31.88;37.30;99714.19;1743577;82;21308;-82
2023/07/30 07:30:16;;;;;;;8.93;3.80;;;;;;;31.90;38.27;99724.59;1743437;82;21314;-84
2023/07/30 07:33:21;;;;;;;8.05;3.90;;;;;;;32.04;37.92;99717.33;1742804;82;21288;-84
2023/07/30 07:36:26;;;;;;;10.88;4.55;;;;;;;31.90;36.97;99713.84;1743332;82;21306;-82
2023/07/30 07:39:32;;;;;;;7.00;4.20;;;;;;;31.94;37.05;99711.42;1741455;82;21946;-83
2023/07/30 07:42:38;;;;;;;11.08;4.35;;;;;;;31.95;36.71;99713.11;1721366;82;22258;-82
2023/07/30 07:45:46;;;;;;;14.93;4.45;;;;;;;31.94;36.97;99713.42;1741865;82;21308;-82
2023/07/30 07:48:50;;;;;;;7.17;4.40;;;;;;;32.13;35.96;99709.66;1741289;82;21279;-83
2023/07/30 07:51:57;;;;;;;8.25;4.95;;;;;;;32.48;35.97;99702.57;1742186;82;21277;-81
2023/07/30 07:55:03;;;;;;;10.53;4.70;;;;;;;32.45;35.98;99704.65;1740599;82;21688;-82
2023/07/30 07:58:12;;;;;;;10.45;5.37;;;;;;;32.36;35.99;99703.80;1742130;82;21357;-82
2023/07/30 08:01:17;;;;;;;10.63;4.87;;;;;;;32.58;36.39;99700.78;1739773;82;21991;-83
2023/07/30 08:04:21;;;;;;;13.18;5.62;;;;;;;32.72;36.09;99698.56;1741404;82;21322;-82
2023/07/30 08:07:28;;;;;;;7.67;4.58;;;;;;;32.93;36.88;99690.75;1742212;82;21879;-84
2023/07/30 08:10:34;;;;;;;10.00;4.87;;;;;;;33.39;36.33;99689.00;1742468;82;21268;-83
2023/07/30 08:13:39;;;;;;;12.73;5.40;;;;;;;33.15;34.58;99694.73;1742163;82;21311;-83
2023/07/30 08:16:45;;;;;;;11.12;5.90;;;;;;;32.97;36.11;99693.16;1742983;82;21307;-82
2023/07/30 08:19:51;;;;;;;9.50;5.75;;;;;;;33.20;35.33;99698.78;1742119;82;21844;-82
2023/07/30 08:22:57;;;;;;;10.90;5.15;;;;;;;32.96;36.46;99693.75;1741980;82;21429;-82
2023/07/30 08:26:02;;;;;;;15.05;6.17;;;;;;;32.79;37.14;99696.61;1743311;82;21276;-82
2023/07/30 08:29:10;;;;;;;9.85;5.37;;;;;;;33.22;36.89;99698.42;1742740;82;21272;-83
2023/07/30 08:32:16;;;;;;;10.08;5.17;;;;;;;33.57;35.98;99699.90;1742642;82;21314;-83
2023/07/30 08:35:22;;;;;;;11.85;4.50;;;;;;;33.20;35.86;99695.94;1746737;82;21378;-83
2023/07/30 08:38:27;;;;;;;8.70;4.62;;;;;;;32.98;36.31;99696.23;1748712;82;21841;-83
2023/07/30 08:41:33;;;;;;;8.80;4.08;;;;;;;32.74;36.03;99699.05;1747905;82;21823;-83
2023/07/30 08:44:39;;;;;;;7.62;4.08;;;;;;;32.79;36.21;99698.03;1749067;82;21302;-83
2023/07/30 08:47:47;;;;;;;7.65;3.62;;;;;;;32.02;36.96;99698.45;1749120;82;21295;-82
2023/07/30 08:50:52;;;;;;;7.95;3.10;;;;;;;32.18;36.43;99701.59;1749191;82;21270;-82
